createdAt,value
2018-06-19T00:01:47.122Z,24.63
2018-06-19T00:04:14.680Z,21.47
2018-06-19T00:06:42.311Z,20.70
2018-06-19T00:09:09.941Z,19.30
2018-06-19T00:11:37.559Z,22.80
2018-06-19T00:14:05.273Z,22.83
2018-06-19T00:16:32.948Z,21.53
2018-06-19T00:19:01.128Z,25.70
2018-06-19T00:21:29.771Z,23.77
2018-06-19T00:23:57.464Z,21.63
2018-06-19T00:26:25.167Z,21.17
2018-06-19T00:28:52.768Z,22.00
2018-06-19T00:31:20.404Z,25.93
2018-06-19T00:33:48.080Z,23.27
2018-06-19T00:36:15.744Z,22.70
2018-06-19T00:38:43.232Z,23.40
2018-06-19T00:41:10.777Z,23.13
2018-06-19T00:46:13.131Z,27.77
2018-06-19T00:48:40.582Z,23.90
2018-06-19T00:51:08.064Z,22.73
2018-06-19T00:53:35.663Z,27.70
2018-06-19T00:56:14.691Z,22.33
2018-06-19T00:58:42.462Z,22.30
2018-06-19T01:01:10.063Z,23.00
2018-06-19T01:03:37.516Z,24.63
2018-06-19T01:06:05.020Z,21.00
2018-06-19T01:08:32.559Z,27.80
2018-06-19T01:11:00.049Z,21.27
2018-06-19T01:13:27.564Z,29.10
2018-06-19T01:15:55.116Z,22.83
2018-06-19T01:18:22.620Z,31.33
2018-06-19T01:20:50.229Z,20.37
2018-06-19T01:23:17.791Z,28.10
2018-06-19T01:25:45.265Z,25.67
2018-06-19T01:28:12.732Z,24.20
2018-06-19T01:30:40.216Z,24.57
2018-06-19T01:33:07.829Z,23.17
2018-06-19T01:35:35.844Z,23.27
2018-06-19T01:38:03.405Z,28.37
2018-06-19T01:40:30.913Z,23.10
2018-06-19T01:42:58.424Z,21.67
2018-06-19T01:45:25.932Z,20.23
2018-06-19T01:47:53.724Z,20.93
2018-06-19T01:50:21.239Z,22.33
2018-06-19T01:52:48.798Z,22.27
2018-06-19T01:55:16.299Z,21.43
2018-06-19T01:57:43.880Z,20.07
2018-06-19T02:00:11.591Z,22.27
2018-06-19T02:02:39.144Z,20.83
2018-06-19T02:05:06.643Z,20.23
2018-06-19T02:07:34.108Z,21.50
2018-06-19T02:10:01.544Z,23.60
2018-06-19T02:12:29.017Z,22.23
2018-06-19T02:14:56.477Z,27.00
2018-06-19T02:17:24.356Z,21.57
2018-06-19T02:19:51.981Z,24.40
2018-06-19T02:22:19.468Z,23.40
2018-06-19T02:24:46.945Z,21.80
2018-06-19T02:27:14.446Z,21.00
2018-06-19T02:29:42.032Z,21.30
2018-06-19T02:32:09.508Z,20.60
2018-06-19T02:34:36.972Z,20.53
2018-06-19T02:37:04.468Z,20.70
2018-06-19T02:39:32.437Z,20.80
2018-06-19T02:41:59.915Z,21.50
2018-06-19T02:44:27.396Z,17.90
2018-06-19T02:46:54.880Z,18.27
2018-06-19T02:49:22.352Z,21.33
2018-06-19T02:51:49.835Z,18.80
2018-06-19T02:54:17.397Z,16.80
2018-06-19T02:56:44.872Z,19.57
2018-06-19T02:59:12.357Z,21.57
2018-06-19T03:01:39.817Z,19.17
2018-06-19T03:04:07.328Z,17.40
2018-06-19T03:06:34.808Z,15.60
2018-06-19T03:09:03.029Z,15.67
2018-06-19T03:11:30.487Z,19.70
2018-06-19T03:13:57.979Z,22.03
2018-06-19T03:16:25.402Z,14.77
2018-06-19T03:18:52.887Z,16.33
2018-06-19T03:21:20.447Z,15.77
2018-06-19T03:23:47.956Z,15.17
2018-06-19T03:26:15.537Z,15.57
2018-06-19T03:28:43.075Z,15.53
2018-06-19T03:31:10.583Z,15.30
2018-06-19T03:33:38.112Z,13.77
2018-06-19T03:36:05.681Z,16.03
2018-06-19T03:38:33.265Z,17.57
2018-06-19T03:41:00.769Z,13.37
2018-06-19T03:43:28.343Z,15.17
2018-06-19T03:45:55.807Z,13.83
2018-06-19T03:48:23.332Z,16.27
2018-06-19T03:50:50.835Z,12.87
2018-06-19T03:53:18.285Z,13.27
2018-06-19T03:55:45.800Z,13.30
2018-06-19T03:58:13.264Z,13.97
2018-06-19T04:00:45.465Z,13.57
2018-06-19T04:03:13.160Z,13.83
2018-06-19T04:05:40.653Z,14.20
2018-06-19T04:08:08.129Z,12.67
2018-06-19T04:10:35.577Z,13.17
2018-06-19T04:13:03.056Z,14.70
2018-06-19T04:15:30.539Z,15.70
2018-06-19T04:17:57.964Z,15.77
2018-06-19T04:20:25.428Z,12.60
2018-06-19T04:22:52.892Z,14.97
2018-06-19T04:25:20.434Z,12.50
2018-06-19T04:27:47.947Z,12.77
2018-06-19T04:30:15.477Z,13.60
2018-06-19T04:32:42.965Z,15.50
2018-06-19T04:35:10.439Z,13.50
2018-06-19T04:37:37.850Z,16.63
2018-06-19T04:40:05.596Z,12.40
2018-06-19T04:42:33.036Z,14.20
2018-06-19T04:45:00.625Z,12.73
2018-06-19T04:47:28.107Z,12.57
2018-06-19T04:49:55.832Z,13.00
2018-06-19T04:52:23.380Z,14.97
2018-06-19T04:54:50.900Z,15.60
2018-06-19T04:57:18.519Z,14.20
2018-06-19T04:59:46.156Z,12.60
2018-06-19T05:02:13.637Z,14.93
2018-06-19T05:04:41.103Z,17.07
2018-06-19T05:07:08.578Z,15.13
2018-06-19T05:09:36.067Z,15.23
2018-06-19T05:12:03.600Z,14.40
2018-06-19T05:14:31.151Z,12.27
2018-06-19T05:16:58.615Z,17.70
2018-06-19T05:19:26.107Z,16.80
2018-06-19T05:21:53.788Z,12.43
2018-06-19T05:24:21.254Z,13.50
2018-06-19T05:26:48.687Z,14.50
2018-06-19T05:29:16.120Z,12.63
2018-06-19T05:31:44.075Z,13.50
2018-06-19T05:34:11.744Z,12.33
2018-06-19T05:36:39.204Z,12.53
2018-06-19T05:39:08.695Z,13.50
2018-06-19T05:41:36.412Z,13.30
2018-06-19T05:44:04.604Z,16.53
2018-06-19T05:46:32.077Z,12.77
2018-06-19T05:48:59.590Z,13.63
2018-06-19T05:51:27.071Z,12.87
2018-06-19T05:53:55.043Z,13.50
2018-06-19T05:56:23.151Z,13.40
2018-06-19T05:58:51.492Z,16.87
2018-06-19T06:01:19.758Z,15.70
2018-06-19T06:03:47.786Z,12.97
2018-06-19T06:06:15.232Z,15.00
2018-06-19T06:08:43.605Z,14.97
2018-06-19T06:11:11.264Z,12.40
2018-06-19T06:13:39.228Z,13.43
2018-06-19T06:16:07.119Z,13.30
2018-06-19T06:18:34.931Z,13.47
2018-06-19T06:21:02.997Z,13.23
2018-06-19T06:23:30.992Z,13.17
2018-06-19T06:26:01.888Z,12.93
2018-06-19T06:28:29.760Z,14.00
2018-06-19T06:30:57.299Z,12.10
2018-06-19T06:33:25.299Z,12.43
2018-06-19T06:35:53.616Z,13.30
2018-06-19T06:38:21.264Z,13.07
2018-06-19T06:40:49.132Z,13.47
2018-06-19T06:43:17.886Z,14.60
2018-06-19T06:45:45.405Z,15.83
2018-06-19T06:48:12.939Z,14.83
2018-06-19T06:50:40.939Z,11.23
2018-06-19T06:53:09.278Z,17.20
2018-06-19T06:55:37.819Z,13.63
2018-06-19T06:58:05.923Z,18.23
2018-06-19T07:00:33.541Z,13.10
2018-06-19T07:03:01.010Z,12.07
2018-06-19T07:05:28.555Z,11.57
2018-06-19T07:07:56.129Z,18.97
2018-06-19T07:10:24.289Z,14.73
2018-06-19T07:12:52.867Z,16.73
2018-06-19T07:15:20.319Z,13.27
2018-06-19T07:17:47.855Z,11.60
2018-06-19T07:20:15.293Z,12.60
2018-06-19T07:22:42.896Z,13.70
2018-06-19T07:25:10.373Z,18.63
2018-06-19T07:27:37.876Z,11.47
2018-06-19T07:30:05.347Z,13.87
2018-06-19T07:32:32.827Z,12.60
2018-06-19T07:35:00.343Z,13.00
2018-06-19T07:37:27.911Z,16.67
2018-06-19T07:39:55.411Z,12.73
2018-06-19T07:42:23.035Z,19.03
2018-06-19T07:44:50.524Z,12.43
2018-06-19T07:47:18.011Z,15.73
2018-06-19T07:49:45.456Z,14.00
2018-06-19T07:52:12.969Z,14.60
2018-06-19T07:54:40.463Z,13.53
2018-06-19T07:57:07.962Z,15.93
2018-06-19T07:59:35.420Z,15.23
2018-06-19T08:02:02.912Z,17.03
2018-06-19T08:04:30.796Z,16.20
2018-06-19T08:06:58.439Z,15.63
2018-06-19T08:09:25.885Z,13.23
2018-06-19T08:11:53.444Z,14.47
2018-06-19T08:14:20.926Z,13.13
2018-06-19T08:16:48.373Z,14.67
2018-06-19T08:19:16.291Z,13.77
2018-06-19T08:21:43.788Z,12.93
2018-06-19T08:24:11.328Z,19.17
2018-06-19T08:26:38.921Z,13.40
2018-06-19T08:29:06.426Z,14.97
2018-06-19T08:31:33.892Z,16.40
2018-06-19T08:34:01.471Z,15.83
2018-06-19T08:36:29.064Z,17.27
2018-06-19T08:38:56.601Z,16.97
2018-06-19T08:41:24.105Z,20.30
2018-06-19T08:43:51.699Z,21.43
2018-06-19T08:46:19.156Z,22.00
2018-06-19T08:48:46.650Z,22.97
2018-06-19T08:51:14.409Z,19.20
2018-06-19T08:53:41.955Z,23.97
2018-06-19T08:56:09.528Z,24.80
2018-06-19T08:58:37.039Z,24.13
2018-06-19T09:01:04.554Z,24.63
2018-06-19T09:03:32.000Z,20.87
2018-06-19T09:05:59.472Z,23.60
2018-06-19T09:08:27.090Z,26.80
2018-06-19T09:10:54.577Z,23.87
2018-06-19T09:13:22.060Z,25.10
2018-06-19T09:15:49.687Z,22.37
2018-06-19T09:18:17.292Z,24.73
2018-06-19T09:20:44.837Z,23.93
2018-06-19T09:23:12.329Z,22.03
2018-06-19T09:25:39.843Z,21.50
2018-06-19T09:28:07.455Z,22.50
2018-06-19T09:30:34.904Z,22.07
2018-06-19T09:33:02.592Z,20.73
2018-06-19T09:35:30.071Z,21.13
2018-06-19T09:37:57.612Z,21.03
2018-06-19T09:40:25.589Z,22.37
2018-06-19T09:42:53.118Z,19.83
2018-06-19T09:45:20.591Z,19.67
2018-06-19T09:47:48.072Z,20.87
2018-06-19T09:50:15.552Z,20.23
2018-06-19T09:52:43.207Z,19.50
2018-06-19T09:55:10.813Z,16.63
2018-06-19T09:57:38.753Z,17.93
2018-06-19T10:00:06.291Z,16.40
2018-06-19T10:02:33.769Z,16.33
2018-06-19T10:05:01.273Z,19.17
2018-06-19T10:07:29.137Z,19.90
2018-06-19T10:09:56.775Z,19.13
2018-06-19T10:12:24.259Z,21.10
2018-06-19T10:14:51.768Z,21.73
2018-06-19T10:17:19.319Z,19.53
2018-06-19T10:19:46.944Z,17.97
2018-06-19T10:22:14.387Z,17.17
2018-06-19T10:24:41.918Z,18.60
2018-06-19T10:27:09.381Z,20.57
2018-06-19T10:29:37.089Z,19.30
2018-06-19T10:32:04.718Z,20.00
2018-06-19T10:34:32.261Z,18.37
2018-06-19T10:36:59.739Z,19.60
2018-06-19T10:39:27.255Z,20.43
2018-06-19T10:41:54.784Z,19.33
2018-06-19T10:44:22.301Z,19.20
2018-06-19T10:46:49.810Z,20.07
2018-06-19T10:49:17.279Z,19.10
2018-06-19T10:51:45.186Z,17.60
2018-06-19T10:54:12.655Z,19.37
2018-06-19T10:56:40.140Z,18.23
2018-06-19T10:59:07.596Z,19.07
2018-06-19T11:01:35.081Z,19.93
2018-06-19T11:04:03.023Z,18.13
2018-06-19T11:06:30.619Z,18.67
2018-06-19T11:08:58.200Z,19.10
2018-06-19T11:11:25.808Z,17.10
2018-06-19T11:13:53.768Z,16.00
2018-06-19T11:16:21.251Z,16.33
2018-06-19T11:18:48.688Z,18.80
2018-06-19T11:21:16.220Z,17.73
2018-06-19T11:23:43.740Z,19.73
2018-06-19T11:26:11.555Z,19.07
2018-06-19T11:28:39.102Z,21.03
2018-06-19T11:31:06.647Z,18.83
2018-06-19T11:33:34.124Z,17.90
2018-06-19T11:36:02.151Z,16.40
2018-06-19T11:38:29.669Z,15.37
2018-06-19T11:40:57.249Z,14.63
2018-06-19T11:43:24.758Z,16.93
2018-06-19T11:45:52.230Z,13.87
2018-06-19T11:48:20.263Z,13.13
2018-06-19T11:50:47.939Z,14.43
2018-06-19T11:53:15.528Z,12.67
2018-06-19T11:55:43.120Z,12.87
2018-06-19T11:58:10.786Z,14.33
2018-06-19T12:00:38.276Z,13.77
2018-06-19T12:03:05.742Z,14.07
2018-06-19T12:05:33.295Z,11.73
2018-06-19T12:08:00.764Z,10.83
2018-06-19T12:10:28.248Z,13.17
2018-06-19T12:12:55.817Z,12.53
2018-06-19T12:15:23.374Z,13.17
2018-06-19T12:17:51.012Z,13.20
2018-06-19T12:20:18.580Z,15.00
2018-06-19T12:22:46.119Z,13.00
2018-06-19T12:25:13.596Z,13.63
2018-06-19T12:27:41.100Z,12.27
2018-06-19T12:30:08.576Z,12.80
2018-06-19T12:32:36.131Z,10.57
2018-06-19T12:35:03.680Z,9.93
2018-06-19T12:37:31.153Z,11.37
2018-06-19T12:39:58.730Z,8.10
2018-06-19T12:42:26.205Z,7.50
2018-06-19T12:44:53.644Z,6.87
2018-06-19T12:47:21.136Z,7.30
2018-06-19T12:50:31.831Z,6.77
2018-06-19T12:53:11.320Z,7.27
2018-06-19T12:55:50.996Z,7.27
2018-06-19T12:58:18.730Z,7.00
2018-06-19T13:00:46.405Z,8.70
2018-06-19T13:03:25.524Z,7.33
2018-06-19T13:06:04.761Z,6.97
2018-06-19T13:08:32.631Z,8.50
2018-06-19T13:11:00.476Z,8.27
2018-06-19T13:13:39.572Z,8.13
2018-06-19T13:16:17.272Z,8.03
2018-06-19T13:18:56.347Z,8.63
2018-06-19T13:21:23.852Z,7.13
2018-06-19T13:23:51.347Z,7.50
2018-06-19T13:26:18.799Z,7.47
2018-06-19T13:29:56.633Z,6.50
2018-06-19T13:32:24.375Z,7.23
2018-06-19T13:34:51.999Z,7.40
2018-06-19T13:37:19.500Z,7.83
2018-06-19T13:39:51.539Z,6.63
2018-06-19T13:42:30.664Z,5.50
2018-06-19T13:45:00.101Z,4.50
2018-06-19T13:47:27.569Z,4.10
2018-06-19T13:49:55.200Z,5.27
2018-06-19T13:52:22.780Z,3.67
2018-06-19T13:54:50.253Z,3.50
2018-06-19T13:57:33.440Z,8.70
2018-06-19T14:00:02.140Z,4.03
2018-06-19T14:02:29.659Z,3.50
2018-06-19T14:04:57.267Z,3.50
2018-06-19T14:07:25.666Z,6.30
2018-06-19T14:10:04.532Z,3.33
2018-06-19T14:12:58.425Z,4.17
2018-06-19T14:15:27.368Z,8.00
2018-06-19T14:17:55.056Z,3.63
2018-06-19T14:20:22.535Z,3.50
2018-06-19T14:22:50.118Z,4.93
2018-06-19T14:25:18.175Z,3.40
2018-06-19T14:27:45.726Z,6.17
2018-06-19T14:30:13.335Z,3.83
2018-06-19T14:32:40.806Z,4.27
2018-06-19T14:35:08.384Z,4.90
2018-06-19T14:37:35.816Z,3.90
2018-06-19T14:40:03.680Z,3.80
2018-06-19T14:42:31.224Z,6.10
2018-06-19T14:44:59.000Z,3.60
2018-06-19T14:47:26.901Z,3.37
2018-06-19T14:49:54.566Z,2.93
2018-06-19T14:52:22.057Z,3.57
2018-06-19T14:54:49.651Z,4.23
2018-06-19T14:57:17.104Z,4.03
2018-06-19T14:59:44.588Z,4.83
2018-06-19T15:02:12.164Z,3.17
2018-06-19T15:04:39.623Z,3.90
2018-06-19T15:07:07.100Z,4.20
2018-06-19T15:09:34.621Z,4.40
2018-06-19T15:12:02.073Z,4.00
2018-06-19T15:14:29.513Z,4.07
2018-06-19T15:16:56.980Z,4.63
2018-06-19T15:19:24.481Z,4.07
2018-06-19T15:21:52.095Z,4.73
2018-06-19T15:24:19.548Z,3.93
2018-06-19T15:26:47.185Z,4.40
2018-06-19T15:29:14.787Z,4.73
2018-06-19T15:31:42.375Z,3.77
2018-06-19T15:34:09.892Z,7.43
2018-06-19T15:36:37.425Z,6.03
2018-06-19T15:39:08.200Z,3.63
2018-06-19T15:41:35.952Z,4.90
2018-06-19T15:44:04.074Z,3.40
2018-06-19T15:46:31.584Z,5.90
2018-06-19T15:48:59.186Z,3.90
2018-06-19T15:51:26.863Z,9.67
2018-06-19T15:53:54.392Z,5.03
2018-06-19T15:56:22.025Z,3.57
2018-06-19T15:58:49.710Z,3.60
2018-06-19T16:01:17.218Z,3.73
2018-06-19T16:03:44.680Z,3.63
2018-06-19T16:06:12.149Z,4.20
2018-06-19T16:08:39.671Z,3.30
2018-06-19T16:11:07.316Z,4.80
2018-06-19T16:13:34.748Z,3.60
2018-06-19T16:16:02.275Z,4.50
2018-06-19T16:18:29.735Z,4.03
2018-06-19T16:20:57.404Z,4.20
2018-06-19T16:23:24.932Z,4.23
2018-06-19T16:25:52.484Z,5.30
2018-06-19T16:28:20.043Z,4.17
2018-06-19T16:30:47.469Z,4.50
2018-06-19T16:33:14.986Z,4.40
2018-06-19T16:35:42.829Z,5.50
2018-06-19T16:38:12.887Z,5.83
2018-06-19T16:40:40.385Z,4.47
2018-06-19T16:43:08.042Z,5.30
2018-06-19T16:45:35.585Z,5.00
2018-06-19T16:48:03.113Z,4.20
2018-06-19T16:50:30.646Z,5.60
2018-06-19T16:52:58.203Z,4.67
2018-06-19T16:55:25.692Z,4.80
2018-06-19T16:57:53.147Z,4.40
2018-06-19T17:00:20.608Z,4.10
2018-06-19T17:02:48.056Z,4.70
2018-06-19T17:05:16.518Z,4.30
2018-06-19T17:07:44.032Z,4.57
2018-06-19T17:10:12.681Z,6.00
2018-06-19T17:12:40.515Z,4.87
2018-06-19T17:15:08.290Z,5.17
2018-06-19T17:17:35.743Z,5.33
2018-06-19T17:20:03.342Z,7.57
2018-06-19T17:22:30.779Z,4.60
2018-06-19T17:24:58.340Z,5.57
2018-06-19T17:27:25.911Z,5.53
2018-06-19T17:29:53.623Z,5.03
2018-06-19T17:32:21.065Z,3.83
2018-06-19T17:34:48.600Z,6.10
2018-06-19T17:37:16.401Z,5.53
2018-06-19T17:39:43.946Z,5.57
2018-06-19T17:42:11.392Z,4.73
2018-06-19T17:44:40.096Z,5.57
2018-06-19T17:47:07.792Z,5.13
2018-06-19T17:49:35.342Z,4.13
2018-06-19T17:52:02.860Z,4.20
2018-06-19T17:54:30.433Z,4.20
2018-06-19T17:56:57.915Z,4.40
2018-06-19T17:59:25.415Z,5.20
2018-06-19T18:01:53.792Z,8.20
2018-06-19T18:04:21.255Z,6.20
2018-06-19T18:06:48.748Z,7.07
2018-06-19T18:09:16.241Z,5.33
2018-06-19T18:11:43.648Z,5.33
2018-06-19T18:14:11.184Z,5.47
2018-06-19T18:16:38.659Z,5.13
2018-06-19T18:19:07.757Z,5.50
2018-06-19T18:21:35.370Z,4.60
2018-06-19T18:24:02.775Z,6.63
2018-06-19T18:26:30.332Z,7.07
2018-06-19T18:28:57.809Z,5.37
2018-06-19T18:31:25.295Z,4.50
2018-06-19T18:33:52.928Z,4.63
2018-06-19T18:36:20.527Z,4.40
2018-06-19T18:38:48.024Z,7.10
2018-06-19T18:41:15.651Z,7.40
2018-06-19T18:43:43.241Z,4.20
2018-06-19T18:46:10.676Z,8.07
2018-06-19T18:48:38.096Z,3.33
2018-06-19T18:51:05.635Z,6.10
2018-06-19T18:53:33.099Z,4.43
2018-06-19T18:56:00.586Z,8.27
2018-06-19T18:58:28.044Z,5.67
2018-06-19T19:00:55.564Z,4.00
2018-06-19T19:03:22.987Z,3.40
2018-06-19T19:05:50.583Z,4.97
2018-06-19T19:08:18.070Z,7.40
2018-06-19T19:10:48.070Z,4.13
2018-06-19T19:13:15.705Z,4.20
2018-06-19T19:15:48.899Z,5.37
2018-06-19T19:18:22.079Z,3.63
2018-06-19T19:20:49.810Z,10.20
2018-06-19T19:23:17.192Z,5.03
2018-06-19T19:25:44.665Z,5.80
2018-06-19T19:28:17.971Z,11.80
2018-06-19T19:30:45.432Z,4.30
2018-06-19T19:33:12.877Z,5.67
2018-06-19T19:35:40.396Z,5.53
2018-06-19T19:38:13.576Z,4.50
2018-06-19T19:40:41.053Z,4.40
2018-06-19T19:43:08.583Z,4.70
2018-06-19T19:45:36.056Z,4.37
2018-06-19T19:48:09.401Z,4.23
2018-06-19T19:50:36.940Z,3.77
2018-06-19T19:53:04.509Z,3.90
2018-06-19T19:55:31.953Z,6.50
2018-06-19T19:58:05.280Z,7.10
2018-06-19T20:00:32.740Z,4.03
2018-06-19T20:03:00.206Z,5.77
2018-06-19T20:05:28.117Z,5.13
2018-06-19T20:07:55.588Z,4.90
2018-06-19T20:10:23.147Z,4.17
2018-06-19T20:12:50.742Z,5.03
2018-06-19T20:15:18.672Z,7.27
2018-06-19T20:17:46.248Z,6.03
2018-06-19T20:20:13.666Z,4.63
2018-06-19T20:22:41.166Z,5.20
2018-06-19T20:25:09.088Z,6.37
2018-06-19T20:27:36.620Z,5.80
2018-06-19T20:30:05.510Z,7.40
2018-06-19T20:32:33.052Z,6.20
2018-06-19T20:35:00.528Z,5.63
2018-06-19T20:37:28.076Z,9.10
2018-06-19T20:39:55.560Z,5.60
2018-06-19T20:42:23.081Z,6.83
2018-06-19T20:44:50.669Z,4.80
2018-06-19T20:47:18.260Z,6.77
2018-06-19T20:49:46.040Z,8.20
2018-06-19T20:52:13.559Z,5.90
2018-06-19T20:54:41.220Z,5.80
2018-06-19T20:57:08.707Z,6.93
2018-06-19T20:59:36.294Z,6.13
2018-06-19T21:02:20.881Z,4.80
2018-06-19T21:04:48.458Z,4.90
2018-06-19T21:07:16.069Z,9.03
2018-06-19T21:09:43.758Z,7.13
2018-06-19T21:12:11.343Z,4.53
2018-06-19T21:14:38.887Z,5.10
2018-06-19T21:17:06.498Z,6.47
2018-06-19T21:19:34.069Z,4.83
2018-06-19T21:22:01.695Z,5.73
2018-06-19T21:24:29.371Z,7.43
2018-06-19T21:26:57.896Z,5.80
2018-06-19T21:29:25.579Z,5.17
2018-06-19T21:31:53.473Z,6.50
2018-06-19T21:34:21.205Z,6.00
2018-06-19T21:36:48.799Z,5.73
2018-06-19T21:39:16.332Z,6.83
2018-06-19T21:41:43.886Z,6.07
2018-06-19T21:44:11.446Z,6.40
2018-06-19T21:46:39.206Z,6.20
2018-06-19T21:49:07.521Z,7.13
2018-06-19T21:51:35.427Z,8.00
2018-06-19T21:54:03.165Z,12.77
2018-06-19T21:56:30.719Z,6.00
2018-06-19T21:58:58.325Z,9.70
2018-06-19T22:01:26.606Z,6.67
2018-06-19T22:03:54.596Z,8.20
2018-06-19T22:06:22.331Z,5.57
2018-06-19T22:08:52.915Z,6.50
2018-06-19T22:11:24.403Z,9.03
2018-06-19T22:13:53.021Z,5.67
2018-06-19T22:16:20.641Z,9.13
2018-06-19T22:18:48.665Z,7.23
2018-06-19T22:21:16.562Z,5.57
2018-06-19T22:23:44.200Z,6.23
2018-06-19T22:26:11.775Z,6.80
2018-06-19T22:28:39.312Z,9.73
2018-06-19T22:31:06.902Z,8.07
2018-06-19T22:33:35.500Z,7.40
2018-06-19T22:36:03.254Z,10.33
2018-06-19T22:38:30.903Z,10.00
2018-06-19T22:40:58.534Z,8.93
2018-06-19T22:43:26.139Z,8.30
2018-06-19T22:45:53.827Z,12.10
2018-06-19T22:48:21.418Z,10.33
2018-06-19T22:50:48.944Z,6.00
2018-06-19T22:53:16.500Z,12.27
2018-06-19T22:55:44.078Z,6.80
2018-06-19T22:58:11.620Z,6.90
2018-06-19T23:00:39.246Z,9.63
2018-06-19T23:03:06.900Z,11.33
2018-06-19T23:05:35.816Z,9.60
2018-06-19T23:08:03.514Z,5.63
2018-06-19T23:10:31.138Z,8.67
2018-06-19T23:12:59.920Z,8.73
2018-06-19T23:15:27.504Z,6.97
2018-06-19T23:17:55.144Z,8.73
2018-06-19T23:20:22.748Z,8.57
2018-06-19T23:22:51.076Z,7.53
2018-06-19T23:25:19.111Z,5.90
2018-06-19T23:27:46.913Z,7.40
2018-06-19T23:30:15.086Z,8.43
2018-06-19T23:32:42.739Z,7.53
2018-06-19T23:35:10.785Z,7.60
2018-06-19T23:37:38.515Z,6.80
2018-06-19T23:40:06.124Z,6.30
2018-06-19T23:42:34.039Z,7.47
2018-06-19T23:45:02.435Z,7.40
2018-06-19T23:47:29.969Z,5.23
2018-06-19T23:49:57.599Z,5.87
2018-06-19T23:52:25.152Z,5.93
2018-06-19T23:54:52.706Z,9.03
2018-06-19T23:57:20.351Z,7.30
2018-06-19T23:59:47.811Z,6.70
